createdAt,value
2022-09-01T00:00:11.295Z,12.30
2022-09-01T00:02:38.199Z,12.40
2022-09-01T00:05:07.530Z,12.40
2022-09-01T00:07:35.438Z,12.30
2022-09-01T00:10:05.154Z,12.30
2022-09-01T00:12:32.103Z,12.30
2022-09-01T00:14:59.137Z,12.20
2022-09-01T00:17:26.631Z,12.50
2022-09-01T00:19:53.911Z,12.20
2022-09-01T00:22:21.246Z,12.20
2022-09-01T00:24:48.007Z,12.10
2022-09-01T00:27:14.840Z,12.10
2022-09-01T00:29:43.429Z,12.00
2022-09-01T00:32:11.675Z,12.10
2022-09-01T00:34:38.710Z,12.00
2022-09-01T00:37:05.477Z,12.00
2022-09-01T00:39:32.310Z,11.90
2022-09-01T00:41:59.683Z,11.90
2022-09-01T00:44:29.609Z,11.90
2022-09-01T00:46:59.365Z,11.90
2022-09-01T00:49:38.853Z,11.80
2022-09-01T00:52:10.894Z,11.80
2022-09-01T00:54:43.643Z,12.50
2022-09-01T00:57:12.749Z,11.70
2022-09-01T00:59:46.914Z,11.70
2022-09-01T01:02:13.798Z,11.70
2022-09-01T01:04:43.862Z,11.70
2022-09-01T01:07:12.021Z,11.70
2022-09-01T01:09:42.856Z,11.90
2022-09-01T01:12:14.026Z,11.70
2022-09-01T01:14:41.777Z,11.70
2022-09-01T01:17:12.716Z,11.60
2022-09-01T01:20:08.931Z,11.50
2022-09-01T01:23:03.854Z,11.50
2022-09-01T01:25:32.534Z,11.50
2022-09-01T01:28:09.002Z,11.50
2022-09-01T01:30:37.068Z,11.50
2022-09-01T01:33:05.016Z,11.50
2022-09-01T01:35:33.718Z,11.40
2022-09-01T01:38:02.262Z,11.40
2022-09-01T01:40:31.296Z,11.40
2022-09-01T01:42:59.155Z,11.50
2022-09-01T01:45:26.047Z,11.50
2022-09-01T01:47:53.661Z,11.80
2022-09-01T01:50:26.535Z,11.50
2022-09-01T01:52:58.375Z,11.50
2022-09-01T01:55:28.794Z,11.50
2022-09-01T01:57:56.357Z,11.40
2022-09-01T02:00:30.578Z,12.80
2022-09-01T02:02:58.549Z,11.30
2022-09-01T02:05:32.190Z,11.30
2022-09-01T02:08:10.348Z,11.30
2022-09-01T02:10:42.187Z,11.20
2022-09-01T02:13:16.221Z,11.20
2022-09-01T02:15:49.975Z,11.20
2022-09-01T02:18:31.142Z,12.70
2022-09-01T02:20:58.957Z,11.10
2022-09-01T02:23:25.803Z,11.10
2022-09-01T02:26:15.194Z,11.10
2022-09-01T02:28:45.805Z,12.60
2022-09-01T02:31:13.114Z,11.40
2022-09-01T02:33:44.138Z,11.00
2022-09-01T02:36:14.264Z,12.40
2022-09-01T02:38:45.963Z,11.00
2022-09-01T02:41:14.483Z,11.10
2022-09-01T02:43:46.285Z,11.00
2022-09-01T02:46:14.840Z,11.00
2022-09-01T02:48:46.129Z,11.10
2022-09-01T02:51:16.597Z,11.60
2022-09-01T02:53:50.672Z,11.10
2022-09-01T02:56:18.586Z,11.20
2022-09-01T02:58:47.904Z,11.20
2022-09-01T03:01:23.115Z,11.10
2022-09-01T03:03:51.870Z,11.20
2022-09-01T03:06:23.994Z,12.80
2022-09-01T03:08:55.514Z,11.20
2022-09-01T03:11:24.730Z,10.60
2022-09-01T03:13:52.649Z,11.90
2022-09-01T03:16:19.790Z,12.10
2022-09-01T03:18:46.588Z,11.20
2022-09-01T03:21:16.216Z,11.20
2022-09-01T03:23:45.233Z,11.20
2022-09-01T03:26:13.210Z,11.20
2022-09-01T03:28:40.448Z,11.20
2022-09-01T03:31:07.519Z,11.20
2022-09-01T03:33:34.458Z,11.20
2022-09-01T03:36:01.312Z,11.20
2022-09-01T03:38:28.692Z,11.20
2022-09-01T03:41:02.028Z,11.20
2022-09-01T03:43:36.293Z,11.20
2022-09-01T03:46:03.899Z,11.20
2022-09-01T03:48:32.224Z,11.10
2022-09-01T03:51:02.796Z,11.20
2022-09-01T03:53:32.706Z,12.30
2022-09-01T03:56:00.175Z,13.50
2022-09-01T03:58:27.110Z,11.10
2022-09-01T04:00:56.491Z,11.10
2022-09-01T04:03:28.559Z,11.10
2022-09-01T04:05:56.939Z,11.10
2022-09-01T04:08:32.570Z,11.10
2022-09-01T04:11:03.906Z,11.10
2022-09-01T04:13:41.218Z,11.10
2022-09-01T04:16:36.847Z,11.10
2022-09-01T04:19:15.988Z,12.40
2022-09-01T04:21:44.095Z,11.10
2022-09-01T04:24:13.362Z,11.10
2022-09-01T04:26:41.082Z,11.20
2022-09-01T04:29:10.682Z,11.60
2022-09-01T04:31:38.737Z,11.20
2022-09-01T04:34:13.226Z,11.20
2022-09-01T04:36:44.868Z,11.20
2022-09-01T04:39:13.254Z,11.30
2022-09-01T04:41:46.957Z,11.30
2022-09-01T04:44:16.799Z,11.30
2022-09-01T04:46:46.509Z,11.40
2022-09-01T04:49:19.519Z,11.40
2022-09-01T04:51:53.370Z,11.50
2022-09-01T04:54:22.693Z,12.90
2022-09-01T04:56:52.411Z,11.50
2022-09-01T04:59:23.185Z,12.20
2022-09-01T05:01:50.987Z,11.60
2022-09-01T05:04:22.946Z,11.60
2022-09-01T05:06:59.857Z,11.60
2022-09-01T05:09:35.735Z,11.70
2022-09-01T05:12:15.549Z,11.70
2022-09-01T05:14:47.247Z,13.20
2022-09-01T05:17:14.664Z,11.80
2022-09-01T05:19:43.849Z,11.80
2022-09-01T05:22:15.732Z,12.80
2022-09-01T05:24:45.758Z,12.90
2022-09-01T05:27:12.661Z,12.00
2022-09-01T05:29:44.513Z,12.00
2022-09-01T05:32:12.673Z,12.10
2022-09-01T05:34:41.001Z,12.00
2022-09-01T05:37:08.920Z,12.20
2022-09-01T05:39:38.042Z,12.20
2022-09-01T05:42:08.408Z,14.50
2022-09-01T05:44:36.315Z,12.30
2022-09-01T05:47:03.668Z,14.50
2022-09-01T05:49:33.240Z,12.50
2022-09-01T05:52:00.546Z,13.90
2022-09-01T05:54:27.962Z,14.00
2022-09-01T05:57:04.928Z,12.90
2022-09-01T05:59:41.677Z,12.80
2022-09-01T06:02:09.543Z,12.80
2022-09-01T06:04:42.213Z,12.90
2022-09-01T06:07:16.399Z,13.00
2022-09-01T06:09:46.964Z,13.00
2022-09-01T06:12:18.522Z,13.10
2022-09-01T06:14:47.674Z,13.20
2022-09-01T06:17:16.778Z,14.50
2022-09-01T06:19:44.343Z,13.40
2022-09-01T06:22:11.553Z,13.50
2022-09-01T06:24:40.104Z,13.50
2022-09-01T06:27:11.056Z,13.60
2022-09-01T06:29:41.848Z,13.70
2022-09-01T06:32:10.587Z,14.60
2022-09-01T06:34:42.682Z,13.90
2022-09-01T06:37:11.151Z,14.00
2022-09-01T06:39:38.297Z,14.10
2022-09-01T06:42:06.359Z,16.10
2022-09-01T06:44:33.857Z,14.30
2022-09-01T06:47:05.211Z,14.40
2022-09-01T06:49:38.177Z,14.00
2022-09-01T06:52:05.775Z,16.40
2022-09-01T06:54:35.475Z,14.70
2022-09-01T06:59:54.359Z,14.90
2022-09-01T07:02:27.183Z,14.60
2022-09-01T07:04:54.610Z,15.00
2022-09-01T07:13:38.723Z,15.20
2022-09-01T07:16:32.509Z,15.50
2022-09-01T07:19:01.814Z,15.50
2022-09-01T07:24:20.399Z,15.80
2022-09-01T07:26:52.253Z,15.70
2022-09-01T07:29:21.762Z,15.80
2022-09-01T07:31:49.449Z,15.80
2022-09-01T07:39:51.478Z,16.00
2022-09-01T07:42:56.479Z,15.60
2022-09-01T07:45:27.543Z,16.20
2022-09-01T07:47:55.737Z,16.20
2022-09-01T07:50:38.535Z,16.40
2022-09-01T07:53:08.565Z,16.30
2022-09-01T07:55:35.435Z,16.80
2022-09-01T07:58:02.159Z,16.50
2022-09-01T08:00:31.040Z,16.60
2022-09-01T08:02:58.610Z,16.60
2022-09-01T08:05:27.271Z,16.60
2022-09-01T08:07:54.682Z,16.70
2022-09-01T08:10:22.152Z,16.70
2022-09-01T08:12:56.337Z,16.70
2022-09-01T08:15:41.768Z,16.80
2022-09-01T08:18:14.211Z,16.90
2022-09-01T08:20:45.651Z,17.00
2022-09-01T08:23:15.046Z,17.30
2022-09-01T08:25:44.075Z,17.40
2022-09-01T08:28:13.948Z,17.40
2022-09-01T08:30:42.490Z,17.40
2022-09-01T08:33:18.983Z,17.50
2022-09-01T08:35:48.561Z,17.50
2022-09-01T08:38:15.572Z,17.60
2022-09-01T08:40:43.746Z,17.60
2022-09-01T08:43:25.896Z,17.60
2022-09-01T08:45:58.233Z,17.50
2022-09-01T08:51:52.424Z,18.20
2022-09-01T08:54:31.933Z,17.70
2022-09-01T08:57:05.749Z,17.70
2022-09-01T08:59:32.660Z,17.80
2022-09-01T09:02:08.362Z,17.80
2022-09-01T09:04:49.184Z,17.80
2022-09-01T09:07:34.604Z,17.90
2022-09-01T09:10:12.626Z,17.90
2022-09-01T09:13:08.490Z,18.00
2022-09-01T09:15:37.453Z,18.00
2022-09-01T09:18:38.933Z,18.10
2022-09-01T09:21:22.870Z,18.10
2022-09-01T09:24:08.948Z,18.20
2022-09-01T09:26:43.225Z,18.20
2022-09-01T09:29:10.042Z,18.30
2022-09-01T09:31:43.781Z,18.30
2022-09-01T09:34:40.847Z,18.30
2022-09-01T09:37:19.565Z,18.40
2022-09-01T09:40:01.921Z,18.40
2022-09-01T09:42:33.568Z,18.40
2022-09-01T09:45:04.129Z,18.40
2022-09-01T09:47:46.682Z,18.40
2022-09-01T09:50:25.526Z,18.50
2022-09-01T09:52:54.430Z,18.60
2022-09-01T09:55:29.906Z,18.70
2022-09-01T09:58:09.502Z,18.70
2022-09-01T10:00:36.612Z,18.90
2022-09-01T10:03:08.681Z,19.00
2022-09-01T10:05:48.467Z,19.00
2022-09-01T10:08:45.766Z,19.20
2022-09-01T10:11:31.291Z,19.20
2022-09-01T10:14:04.803Z,19.40
2022-09-01T10:16:34.388Z,19.30
2022-09-01T10:19:02.231Z,19.30
2022-09-01T10:21:34.985Z,19.40
2022-09-01T10:24:20.580Z,19.90
2022-09-01T10:26:52.957Z,19.70
2022-09-01T10:29:35.060Z,19.90
2022-09-01T10:32:30.632Z,20.00
2022-09-01T10:34:59.375Z,20.10
2022-09-01T10:37:27.655Z,20.20
2022-09-01T10:40:34.044Z,20.30
2022-09-01T10:43:37.522Z,20.30
2022-09-01T10:46:18.245Z,20.30
2022-09-01T10:48:51.848Z,20.30
2022-09-01T10:51:28.886Z,20.20
2022-09-01T10:54:04.057Z,20.10
2022-09-01T10:56:43.713Z,19.60
2022-09-01T11:02:28.679Z,20.10
2022-09-01T11:04:59.028Z,20.10
2022-09-01T11:07:58.203Z,20.00
2022-09-01T11:10:37.372Z,19.90
2022-09-01T11:13:14.991Z,20.00
2022-09-01T11:15:45.010Z,20.10
2022-09-01T11:18:18.978Z,20.00
2022-09-01T11:20:47.024Z,20.00
2022-09-01T11:23:34.035Z,20.00
2022-09-01T11:26:32.788Z,20.00
2022-09-01T11:29:01.086Z,20.20
2022-09-01T11:31:38.294Z,20.30
2022-09-01T11:34:20.062Z,20.50
2022-09-01T11:36:51.928Z,20.60
2022-09-01T11:39:19.079Z,20.80
2022-09-01T11:41:59.686Z,20.90
2022-09-01T11:45:06.903Z,20.90
2022-09-01T11:47:39.844Z,21.00
2022-09-01T11:50:27.590Z,21.20
2022-09-01T11:53:14.609Z,21.20
2022-09-01T11:55:47.310Z,21.30
2022-09-01T11:58:29.050Z,21.30
2022-09-01T12:00:58.006Z,21.30
2022-09-01T12:03:28.779Z,21.30
2022-09-01T12:06:07.792Z,21.20
2022-09-01T12:08:38.928Z,21.30
2022-09-01T12:11:19.434Z,21.20
2022-09-01T12:14:11.337Z,21.10
2022-09-01T12:16:42.218Z,21.00
2022-09-01T12:19:22.309Z,21.00
2022-09-01T12:22:04.776Z,21.00
2022-09-01T12:24:37.100Z,21.00
2022-09-01T12:27:04.963Z,21.00
2022-09-01T12:29:33.207Z,21.10
2022-09-01T12:32:01.296Z,21.00
2022-09-01T12:34:39.123Z,21.10
2022-09-01T12:37:21.098Z,21.10
2022-09-01T12:39:54.962Z,21.20
2022-09-01T12:42:21.698Z,21.20
2022-09-01T12:44:57.308Z,21.20
2022-09-01T12:47:36.765Z,21.10
2022-09-01T12:50:29.783Z,21.00
2022-09-01T12:53:01.981Z,21.10
2022-09-01T12:58:27.963Z,21.10
2022-09-01T13:00:58.582Z,21.10
2022-09-01T13:03:27.625Z,21.00
2022-09-01T13:05:56.200Z,21.10
2022-09-01T13:08:33.211Z,21.10
2022-09-01T13:11:07.370Z,21.10
2022-09-01T13:13:35.383Z,21.00
2022-09-01T13:16:08.462Z,21.00
2022-09-01T13:19:10.419Z,21.00
2022-09-01T13:21:22.400Z,21.00
2022-09-01T13:23:50.756Z,20.90
2022-09-01T13:26:17.847Z,21.00
2022-09-01T13:28:46.063Z,20.80
2022-09-01T13:31:29.429Z,20.90
2022-09-01T13:34:23.069Z,20.90
2022-09-01T13:36:47.503Z,20.90
2022-09-01T13:39:17.539Z,20.80
2022-09-01T13:41:47.141Z,20.70
2022-09-01T13:44:14.073Z,20.70
2022-09-01T13:50:05.432Z,20.70
2022-09-01T13:52:15.369Z,20.80
2022-09-01T13:54:44.375Z,20.70
2022-09-01T13:57:11.805Z,20.70
2022-09-01T13:59:39.080Z,20.70
2022-09-01T14:02:06.647Z,20.70
2022-09-01T14:04:33.555Z,21.50
2022-09-01T14:07:00.483Z,20.70
2022-09-01T14:09:27.303Z,20.70
2022-09-01T14:11:54.844Z,20.70
2022-09-01T14:14:22.334Z,20.70
2022-09-01T14:16:49.345Z,20.70
2022-09-01T14:19:16.197Z,20.60
2022-09-01T14:21:43.009Z,20.60
2022-09-01T14:24:09.740Z,20.60
2022-09-01T14:26:36.550Z,20.50
2022-09-01T14:29:03.495Z,20.50
2022-09-01T14:31:32.013Z,20.50
2022-09-01T14:33:58.832Z,20.50
2022-09-01T14:36:27.036Z,20.50
2022-09-01T14:38:54.419Z,20.50
2022-09-01T14:41:26.838Z,20.40
2022-09-01T14:43:57.588Z,20.40
2022-09-01T14:46:26.001Z,20.40
2022-09-01T14:48:53.355Z,20.30
2022-09-01T14:54:19.777Z,20.30
2022-09-01T14:59:34.719Z,20.20
2022-09-01T15:02:01.740Z,20.30
2022-09-01T15:04:28.845Z,20.20
2022-09-01T15:06:55.865Z,20.20
2022-09-01T15:09:23.094Z,20.90
2022-09-01T15:11:50.046Z,20.20
2022-09-01T15:14:16.981Z,20.40
2022-09-01T15:16:43.905Z,20.20
2022-09-01T15:19:13.506Z,20.20
2022-09-01T15:21:42.792Z,21.00
2022-09-01T15:24:10.828Z,20.10
2022-09-01T15:26:41.039Z,20.10
2022-09-01T15:29:10.018Z,20.00
2022-09-01T15:31:36.789Z,20.00
2022-09-01T15:34:04.854Z,19.80
2022-09-01T15:36:39.966Z,19.80
2022-09-01T15:39:08.160Z,19.80
2022-09-01T15:41:35.395Z,19.80
2022-09-01T15:44:07.742Z,21.10
2022-09-01T15:46:38.921Z,19.80
2022-09-01T15:49:09.545Z,19.80
2022-09-01T15:51:39.164Z,19.70
2022-09-01T15:54:08.886Z,19.70
2022-09-01T15:56:36.243Z,19.60
2022-09-01T15:59:05.609Z,19.60
2022-09-01T16:01:36.247Z,19.90
2022-09-01T16:04:04.930Z,19.60
2022-09-01T16:06:32.779Z,19.60
2022-09-01T16:08:59.529Z,19.60
2022-09-01T16:11:29.988Z,19.60
2022-09-01T16:13:57.006Z,19.60
2022-09-01T16:16:36.233Z,19.50
2022-09-01T16:19:15.933Z,19.50
2022-09-01T16:22:14.105Z,19.40
2022-09-01T16:24:49.648Z,19.40
2022-09-01T16:27:25.143Z,19.40
2022-09-01T16:29:56.172Z,19.30
2022-09-01T16:32:23.691Z,19.30
2022-09-01T16:34:51.850Z,19.20
2022-09-01T16:37:30.255Z,19.20
2022-09-01T16:40:14.030Z,19.10
2022-09-01T16:43:00.623Z,19.10
2022-09-01T16:45:48.784Z,19.10
2022-09-01T16:48:19.636Z,18.90
2022-09-01T16:51:06.589Z,18.90
2022-09-01T16:54:11.214Z,18.90
2022-09-01T16:56:54.926Z,18.90
2022-09-01T16:59:52.036Z,18.80
2022-09-01T17:02:35.922Z,18.80
2022-09-01T17:05:24.565Z,18.80
2022-09-01T17:08:07.769Z,18.80
2022-09-01T17:10:50.700Z,18.80
2022-09-01T17:13:23.150Z,18.70
2022-09-01T17:16:01.137Z,18.70
2022-09-01T17:18:44.518Z,19.40
2022-09-01T17:21:18.050Z,18.70
2022-09-01T17:23:57.067Z,18.60
2022-09-01T17:26:29.458Z,18.50
2022-09-01T17:29:09.416Z,18.50
2022-09-01T17:31:49.396Z,18.50
2022-09-01T17:34:16.300Z,18.40
2022-09-01T17:36:48.919Z,18.40
2022-09-01T17:39:55.780Z,18.40
2022-09-01T17:42:34.057Z,18.30
2022-09-01T17:45:12.999Z,18.20
2022-09-01T17:47:49.240Z,18.50
2022-09-01T17:50:24.160Z,18.10
2022-09-01T17:52:56.694Z,18.00
2022-09-01T17:55:23.460Z,18.00
2022-09-01T17:57:58.983Z,18.00
2022-09-01T18:00:42.040Z,17.90
2022-09-01T18:03:14.827Z,17.90
2022-09-01T18:05:57.072Z,17.90
2022-09-01T18:08:34.728Z,17.80
2022-09-01T18:11:11.514Z,17.80
2022-09-01T18:14:16.581Z,17.70
2022-09-01T18:16:49.383Z,17.70
2022-09-01T18:19:24.577Z,17.60
2022-09-01T18:22:01.394Z,17.60
2022-09-01T18:24:46.425Z,17.50
2022-09-01T18:27:13.448Z,17.50
2022-09-01T18:29:40.653Z,17.50
2022-09-01T18:32:42.714Z,17.40
2022-09-01T18:35:23.659Z,17.40
2022-09-01T18:38:02.570Z,17.30
2022-09-01T18:40:37.011Z,17.30
2022-09-01T18:43:22.159Z,17.20
2022-09-01T18:46:01.152Z,17.10
2022-09-01T18:48:45.739Z,17.10
2022-09-01T18:51:40.983Z,17.00
2022-09-01T18:54:26.360Z,16.90
2022-09-01T18:56:59.458Z,16.90
2022-09-01T18:59:38.330Z,17.90
2022-09-01T19:02:20.867Z,16.80
2022-09-01T19:04:52.780Z,16.80
2022-09-01T19:07:28.743Z,16.80
2022-09-01T19:10:07.111Z,16.80
2022-09-01T19:12:48.669Z,16.80
2022-09-01T19:15:27.460Z,16.70
2022-09-01T19:18:20.688Z,16.70
2022-09-01T19:21:00.565Z,16.70
2022-09-01T19:23:47.385Z,16.70
2022-09-01T19:26:21.447Z,16.70
2022-09-01T19:29:10.273Z,16.70
2022-09-01T19:31:43.144Z,16.60
2022-09-01T19:34:17.724Z,16.60
2022-09-01T19:36:49.183Z,16.60
2022-09-01T19:39:19.759Z,16.50
2022-09-01T19:41:56.060Z,16.60
2022-09-01T19:44:57.607Z,16.50
2022-09-01T19:47:43.665Z,16.50
2022-09-01T19:50:31.225Z,16.40
2022-09-01T19:53:11.804Z,16.40
2022-09-01T19:56:13.284Z,16.40
2022-09-01T19:59:08.720Z,16.40
2022-09-01T20:01:44.959Z,16.40
2022-09-01T20:04:27.307Z,16.40
2022-09-01T20:06:59.502Z,16.40
2022-09-01T20:09:39.946Z,16.30
2022-09-01T20:12:14.632Z,16.30
2022-09-01T20:15:19.105Z,16.30
2022-09-01T20:17:57.810Z,16.20
2022-09-01T20:20:45.913Z,16.20
2022-09-01T20:23:43.530Z,16.10
2022-09-01T20:26:34.476Z,16.10
2022-09-01T20:29:08.915Z,16.10
2022-09-01T20:31:45.432Z,16.10
2022-09-01T20:34:14.589Z,16.10
2022-09-01T20:36:56.331Z,16.00
2022-09-01T20:40:01.055Z,16.00
2022-09-01T20:42:46.289Z,15.90
2022-09-01T20:45:22.175Z,15.90
2022-09-01T20:47:55.322Z,15.80
2022-09-01T20:50:56.766Z,15.80
2022-09-01T20:53:45.060Z,15.70
2022-09-01T20:56:27.663Z,15.70
2022-09-01T20:59:06.738Z,15.60
2022-09-01T21:01:52.789Z,15.60
2022-09-01T21:05:13.354Z,15.50
2022-09-01T21:07:52.960Z,15.40
2022-09-01T21:10:27.738Z,15.40
2022-09-01T21:13:11.977Z,15.30
2022-09-01T21:16:21.689Z,15.30
2022-09-01T21:19:15.552Z,15.20
2022-09-01T21:21:56.528Z,16.40
2022-09-01T21:24:23.264Z,15.10
2022-09-01T21:26:50.266Z,15.00
2022-09-01T21:29:43.894Z,16.70
2022-09-01T21:32:13.835Z,15.00
2022-09-01T21:34:40.847Z,15.10
2022-09-01T21:37:07.606Z,15.30
2022-09-01T21:39:34.646Z,14.80
2022-09-01T21:42:02.416Z,14.80
2022-09-01T21:44:29.733Z,14.70
2022-09-01T21:46:58.090Z,14.70
2022-09-01T21:49:25.337Z,16.10
2022-09-01T21:51:55.360Z,14.60
2022-09-01T21:54:24.982Z,14.90
2022-09-01T21:56:53.417Z,14.50
2022-09-01T21:59:20.489Z,14.70
2022-09-01T22:01:48.008Z,14.50
2022-09-01T22:04:15.582Z,14.50
2022-09-01T22:06:42.625Z,14.50
2022-09-01T22:09:20.975Z,14.40
2022-09-01T22:11:49.390Z,15.80
2022-09-01T22:14:16.182Z,14.40
2022-09-01T22:16:43.227Z,14.40
2022-09-01T22:19:10.153Z,14.40
2022-09-01T22:21:37.476Z,14.00
2022-09-01T22:24:05.450Z,14.30
2022-09-01T22:26:34.080Z,14.30
2022-09-01T22:29:04.260Z,14.30
2022-09-01T22:31:33.282Z,14.30
2022-09-01T22:34:01.117Z,15.50
2022-09-01T22:36:32.406Z,14.20
2022-09-01T22:39:00.315Z,14.20
2022-09-01T22:41:30.329Z,14.10
2022-09-01T22:44:00.036Z,14.20
2022-09-01T22:46:28.793Z,14.10
2022-09-01T22:48:57.469Z,14.10
2022-09-01T22:51:24.965Z,15.20
2022-09-01T22:53:53.266Z,14.00
2022-09-01T22:56:29.277Z,14.30
2022-09-01T22:58:57.943Z,14.00
2022-09-01T23:01:27.711Z,13.90
2022-09-01T23:03:58.908Z,13.90
2022-09-01T23:06:28.017Z,13.80
2022-09-01T23:08:57.079Z,13.80
2022-09-01T23:11:25.194Z,13.70
2022-09-01T23:13:52.652Z,13.70
2022-09-01T23:16:20.860Z,13.60
2022-09-01T23:18:48.704Z,13.50
2022-09-01T23:21:25.021Z,13.50
2022-09-01T23:23:58.617Z,13.40
2022-09-01T23:26:30.048Z,13.40
2022-09-01T23:28:57.876Z,13.30
2022-09-01T23:31:29.020Z,13.20
2022-09-01T23:33:56.458Z,13.20
2022-09-01T23:36:26.161Z,13.10
2022-09-01T23:38:53.805Z,14.10
2022-09-01T23:41:24.916Z,13.50
2022-09-01T23:43:52.910Z,13.00
2022-09-01T23:46:23.566Z,12.90
2022-09-01T23:48:50.983Z,13.90
2022-09-01T23:51:18.796Z,13.10
2022-09-01T23:53:46.839Z,12.70
2022-09-01T23:56:16.574Z,12.70
2022-09-01T23:58:43.532Z,12.90
